sensor_id;sensor_type;location;lat;lon;timestamp;P1;durP1;ratioP1;P2;durP2;ratioP2
77234;SDS011;66253;50.526;14.974;2023-04-15T00:09:51;2.50;;;0.60;;
77234;SDS011;66253;50.526;14.974;2023-04-15T00:27:38;0.00;;;0.00;;
77234;SDS011;66253;50.526;14.974;2023-04-15T00:31:00;5.30;;;1.20;;
77234;SDS011;66253;50.526;14.974;2023-04-15T00:33:24;6.10;;;1.80;;
77234;SDS011;66253;50.526;14.974;2023-04-15T00:36:49;9.20;;;1.60;;
77234;SDS011;66253;50.526;14.974;2023-04-15T00:59:09;1.50;;;0.30;;
77234;SDS011;66253;50.526;14.974;2023-04-15T01:30:02;5.30;;;1.40;;
77234;SDS011;66253;50.526;14.974;2023-04-15T01:32:53;3.90;;;1.20;;
77234;SDS011;66253;50.526;14.974;2023-04-15T01:35:18;2.60;;;0.80;;
77234;SDS011;66253;50.526;14.974;2023-04-15T01:42:26;1.70;;;0.20;;
77234;SDS011;66253;50.526;14.974;2023-04-15T01:48:32;0.80;;;0.20;;
77234;SDS011;66253;50.526;14.974;2023-04-15T01:51:33;1.00;;;0.20;;
77234;SDS011;66253;50.526;14.974;2023-04-15T01:54:25;1.30;;;0.20;;
77234;SDS011;66253;50.526;14.974;2023-04-15T01:57:15;1.60;;;0.20;;
77234;SDS011;66253;50.526;14.974;2023-04-15T02:00:14;1.50;;;0.40;;
77234;SDS011;66253;50.526;14.974;2023-04-15T02:06:17;1.70;;;0.50;;
77234;SDS011;66253;50.526;14.974;2023-04-15T02:08:52;5.80;;;1.80;;
77234;SDS011;66253;50.526;14.974;2023-04-15T02:12:12;7.20;;;2.70;;
77234;SDS011;66253;50.526;14.974;2023-04-15T02:15:47;4.30;;;1.60;;
77234;SDS011;66253;50.526;14.974;2023-04-15T02:22:16;5.10;;;2.10;;
77234;SDS011;66253;50.526;14.974;2023-04-15T02:25:10;4.30;;;1.80;;
77234;SDS011;66253;50.526;14.974;2023-04-15T02:28:27;6.90;;;3.00;;
77234;SDS011;66253;50.526;14.974;2023-04-15T02:37:08;3.70;;;1.20;;
77234;SDS011;66253;50.526;14.974;2023-04-15T02:44:04;3.50;;;1.40;;
77234;SDS011;66253;50.526;14.974;2023-04-15T02:47:41;2.90;;;1.20;;
77234;SDS011;66253;50.526;14.974;2023-04-15T02:50:35;2.90;;;0.90;;
77234;SDS011;66253;50.526;14.974;2023-04-15T02:57:30;3.50;;;0.90;;
77234;SDS011;66253;50.526;14.974;2023-04-15T03:04:10;3.80;;;0.80;;
77234;SDS011;66253;50.526;14.974;2023-04-15T03:06:36;3.10;;;0.80;;
77234;SDS011;66253;50.526;14.974;2023-04-15T03:30:06;3.60;;;1.10;;
77234;SDS011;66253;50.526;14.974;2023-04-15T03:51:02;5.00;;;1.80;;
77234;SDS011;66253;50.526;14.974;2023-04-15T03:53:39;3.50;;;1.70;;
77234;SDS011;66253;50.526;14.974;2023-04-15T03:59:55;3.80;;;1.70;;
77234;SDS011;66253;50.526;14.974;2023-04-15T04:03:01;4.70;;;2.00;;
77234;SDS011;66253;50.526;14.974;2023-04-15T04:37:01;4.40;;;2.10;;
77234;SDS011;66253;50.526;14.974;2023-04-15T04:40:18;6.00;;;2.50;;
77234;SDS011;66253;50.526;14.974;2023-04-15T04:47:24;4.90;;;2.00;;
77234;SDS011;66253;50.526;14.974;2023-04-15T04:49:39;6.00;;;3.00;;
77234;SDS011;66253;50.526;14.974;2023-04-15T04:52:28;5.30;;;2.30;;
77234;SDS011;66253;50.526;14.974;2023-04-15T04:55:02;4.90;;;2.40;;
77234;SDS011;66253;50.526;14.974;2023-04-15T04:57:49;5.60;;;2.90;;
77234;SDS011;66253;50.526;14.974;2023-04-15T05:00:14;5.60;;;2.70;;
77234;SDS011;66253;50.526;14.974;2023-04-15T05:06:22;5.40;;;2.60;;
77234;SDS011;66253;50.526;14.974;2023-04-15T05:09:14;5.10;;;2.40;;
77234;SDS011;66253;50.526;14.974;2023-04-15T05:23:56;6.00;;;2.70;;
77234;SDS011;66253;50.526;14.974;2023-04-15T05:26:26;4.70;;;2.00;;
77234;SDS011;66253;50.526;14.974;2023-04-15T05:29:06;9.00;;;4.40;;
77234;SDS011;66253;50.526;14.974;2023-04-15T05:31:35;11.10;;;5.10;;
77234;SDS011;66253;50.526;14.974;2023-04-15T05:34:56;11.80;;;5.80;;
77234;SDS011;66253;50.526;14.974;2023-04-15T05:38:03;9.50;;;4.40;;
77234;SDS011;66253;50.526;14.974;2023-04-15T05:41:09;5.70;;;2.70;;
77234;SDS011;66253;50.526;14.974;2023-04-15T05:50:58;5.60;;;2.50;;
77234;SDS011;66253;50.526;14.974;2023-04-15T05:54:08;6.70;;;2.90;;
77234;SDS011;66253;50.526;14.974;2023-04-15T05:59:32;4.20;;;1.70;;
77234;SDS011;66253;50.526;14.974;2023-04-15T06:02:31;4.20;;;1.60;;
77234;SDS011;66253;50.526;14.974;2023-04-15T06:05:40;4.20;;;2.00;;
77234;SDS011;66253;50.526;14.974;2023-04-15T06:08:06;3.60;;;1.40;;
77234;SDS011;66253;50.526;14.974;2023-04-15T06:10:36;4.10;;;1.70;;
77234;SDS011;66253;50.526;14.974;2023-04-15T06:13:22;4.40;;;2.10;;
77234;SDS011;66253;50.526;14.974;2023-04-15T06:16:27;4.50;;;1.40;;
77234;SDS011;66253;50.526;14.974;2023-04-15T06:19:02;2.60;;;0.80;;
77234;SDS011;66253;50.526;14.974;2023-04-15T06:21:49;3.10;;;1.20;;
77234;SDS011;66253;50.526;14.974;2023-04-15T06:27:06;2.40;;;0.70;;
77234;SDS011;66253;50.526;14.974;2023-04-15T06:29:41;3.30;;;2.20;;
77234;SDS011;66253;50.526;14.974;2023-04-15T06:32:10;3.10;;;2.30;;
77234;SDS011;66253;50.526;14.974;2023-04-15T06:34:39;3.10;;;1.50;;
77234;SDS011;66253;50.526;14.974;2023-04-15T06:37:18;3.80;;;1.50;;
77234;SDS011;66253;50.526;14.974;2023-04-15T06:39:44;3.20;;;1.10;;
77234;SDS011;66253;50.526;14.974;2023-04-15T06:42:10;3.40;;;1.20;;
77234;SDS011;66253;50.526;14.974;2023-04-15T06:44:41;2.70;;;1.20;;
77234;SDS011;66253;50.526;14.974;2023-04-15T06:47:17;3.30;;;1.40;;
77234;SDS011;66253;50.526;14.974;2023-04-15T06:49:55;2.40;;;0.80;;
77234;SDS011;66253;50.526;14.974;2023-04-15T06:52:42;2.80;;;0.90;;
77234;SDS011;66253;50.526;14.974;2023-04-15T06:58:41;2.70;;;0.80;;
77234;SDS011;66253;50.526;14.974;2023-04-15T07:01:10;2.20;;;1.00;;
77234;SDS011;66253;50.526;14.974;2023-04-15T07:07:07;1.70;;;0.40;;
77234;SDS011;66253;50.526;14.974;2023-04-15T07:09:42;2.40;;;0.70;;
77234;SDS011;66253;50.526;14.974;2023-04-15T07:12:23;2.20;;;0.70;;
77234;SDS011;66253;50.526;14.974;2023-04-15T07:15:13;2.30;;;0.60;;
77234;SDS011;66253;50.526;14.974;2023-04-15T07:17:41;1.70;;;0.40;;
77234;SDS011;66253;50.526;14.974;2023-04-15T07:20:16;1.70;;;0.50;;
77234;SDS011;66253;50.526;14.974;2023-04-15T07:26:41;1.40;;;0.30;;
77234;SDS011;66253;50.526;14.974;2023-04-15T07:30:11;1.40;;;0.20;;
77234;SDS011;66253;50.526;14.974;2023-04-15T07:32:50;1.70;;;0.40;;
77234;SDS011;66253;50.526;14.974;2023-04-15T07:35:22;2.00;;;0.40;;
77234;SDS011;66253;50.526;14.974;2023-04-15T07:41:30;1.20;;;0.20;;
77234;SDS011;66253;50.526;14.974;2023-04-15T07:50:15;1.60;;;0.20;;
77234;SDS011;66253;50.526;14.974;2023-04-15T07:53:01;2.00;;;0.80;;
77234;SDS011;66253;50.526;14.974;2023-04-15T07:56:32;1.50;;;0.30;;
77234;SDS011;66253;50.526;14.974;2023-04-15T07:58:48;2.40;;;0.70;;
77234;SDS011;66253;50.526;14.974;2023-04-15T08:01:20;1.40;;;0.30;;
77234;SDS011;66253;50.526;14.974;2023-04-15T08:04:19;1.50;;;0.30;;
77234;SDS011;66253;50.526;14.974;2023-04-15T08:07:09;1.20;;;0.30;;
77234;SDS011;66253;50.526;14.974;2023-04-15T08:09:39;2.30;;;0.60;;
77234;SDS011;66253;50.526;14.974;2023-04-15T08:12:18;2.80;;;0.80;;
77234;SDS011;66253;50.526;14.974;2023-04-15T08:14:44;2.90;;;0.70;;
77234;SDS011;66253;50.526;14.974;2023-04-15T08:17:32;1.60;;;0.40;;
77234;SDS011;66253;50.526;14.974;2023-04-15T08:20:24;1.90;;;0.70;;
77234;SDS011;66253;50.526;14.974;2023-04-15T08:22:52;1.70;;;0.30;;
77234;SDS011;66253;50.526;14.974;2023-04-15T08:26:02;3.70;;;1.40;;
77234;SDS011;66253;50.526;14.974;2023-04-15T08:28:30;2.00;;;0.40;;
77234;SDS011;66253;50.526;14.974;2023-04-15T08:34:11;3.80;;;1.50;;
77234;SDS011;66253;50.526;14.974;2023-04-15T08:36:46;1.70;;;0.50;;
77234;SDS011;66253;50.526;14.974;2023-04-15T08:39:33;2.70;;;0.90;;
77234;SDS011;66253;50.526;14.974;2023-04-15T08:42:01;1.60;;;0.50;;
77234;SDS011;66253;50.526;14.974;2023-04-15T08:47:40;2.60;;;1.00;;
77234;SDS011;66253;50.526;14.974;2023-04-15T08:54:04;2.30;;;0.50;;
77234;SDS011;66253;50.526;14.974;2023-04-15T08:56:30;3.10;;;0.90;;
77234;SDS011;66253;50.526;14.974;2023-04-15T08:58:58;2.00;;;0.70;;
77234;SDS011;66253;50.526;14.974;2023-04-15T09:01:38;3.30;;;1.00;;
77234;SDS011;66253;50.526;14.974;2023-04-15T09:04:48;2.60;;;1.10;;
77234;SDS011;66253;50.526;14.974;2023-04-15T09:07:32;3.10;;;1.10;;
77234;SDS011;66253;50.526;14.974;2023-04-15T09:13:55;2.50;;;0.90;;
77234;SDS011;66253;50.526;14.974;2023-04-15T09:16:26;2.00;;;0.60;;
77234;SDS011;66253;50.526;14.974;2023-04-15T09:19:41;2.60;;;0.90;;
77234;SDS011;66253;50.526;14.974;2023-04-15T09:22:00;2.50;;;0.70;;
77234;SDS011;66253;50.526;14.974;2023-04-15T09:24:37;3.50;;;0.70;;
77234;SDS011;66253;50.526;14.974;2023-04-15T09:27:19;2.90;;;1.20;;
77234;SDS011;66253;50.526;14.974;2023-04-15T09:29:50;2.70;;;0.80;;
77234;SDS011;66253;50.526;14.974;2023-04-15T09:32:23;2.60;;;1.70;;
77234;SDS011;66253;50.526;14.974;2023-04-15T09:34:52;2.30;;;1.10;;
77234;SDS011;66253;50.526;14.974;2023-04-15T09:37:18;2.70;;;1.00;;
77234;SDS011;66253;50.526;14.974;2023-04-15T09:40:03;3.60;;;1.00;;
77234;SDS011;66253;50.526;14.974;2023-04-15T09:42:54;2.70;;;0.80;;
77234;SDS011;66253;50.526;14.974;2023-04-15T09:45:24;2.60;;;0.90;;
77234;SDS011;66253;50.526;14.974;2023-04-15T09:47:50;4.10;;;1.30;;
77234;SDS011;66253;50.526;14.974;2023-04-15T09:50:22;2.90;;;1.50;;
77234;SDS011;66253;50.526;14.974;2023-04-15T09:53:02;2.60;;;0.70;;
77234;SDS011;66253;50.526;14.974;2023-04-15T09:55:28;3.80;;;1.40;;
77234;SDS011;66253;50.526;14.974;2023-04-15T09:58:08;3.20;;;1.10;;
77234;SDS011;66253;50.526;14.974;2023-04-15T10:00:54;4.20;;;2.20;;
77234;SDS011;66253;50.526;14.974;2023-04-15T10:03:32;3.20;;;1.90;;
77234;SDS011;66253;50.526;14.974;2023-04-15T10:06:04;3.30;;;1.20;;
77234;SDS011;66253;50.526;14.974;2023-04-15T10:08:31;3.50;;;1.80;;
77234;SDS011;66253;50.526;14.974;2023-04-15T10:11:02;3.60;;;1.30;;
77234;SDS011;66253;50.526;14.974;2023-04-15T10:13:29;2.40;;;0.70;;
77234;SDS011;66253;50.526;14.974;2023-04-15T10:16:04;2.30;;;0.80;;
77234;SDS011;66253;50.526;14.974;2023-04-15T10:18:31;2.20;;;0.60;;
77234;SDS011;66253;50.526;14.974;2023-04-15T10:21:02;3.30;;;1.20;;
77234;SDS011;66253;50.526;14.974;2023-04-15T10:26:21;3.50;;;1.80;;
77234;SDS011;66253;50.526;14.974;2023-04-15T10:28:50;2.80;;;1.00;;
77234;SDS011;66253;50.526;14.974;2023-04-15T10:31:28;3.10;;;1.20;;
77234;SDS011;66253;50.526;14.974;2023-04-15T10:33:57;3.00;;;1.70;;
77234;SDS011;66253;50.526;14.974;2023-04-15T10:36:33;3.40;;;0.50;;
77234;SDS011;66253;50.526;14.974;2023-04-15T10:42:10;1.50;;;0.30;;
77234;SDS011;66253;50.526;14.974;2023-04-15T10:44:38;1.60;;;0.40;;
77234;SDS011;66253;50.526;14.974;2023-04-15T10:47:15;1.90;;;0.80;;
77234;SDS011;66253;50.526;14.974;2023-04-15T10:49:47;2.20;;;1.20;;
77234;SDS011;66253;50.526;14.974;2023-04-15T10:52:22;1.70;;;0.70;;
77234;SDS011;66253;50.526;14.974;2023-04-15T10:55:00;3.40;;;0.80;;
77234;SDS011;66253;50.526;14.974;2023-04-15T10:57:52;1.80;;;0.70;;
77234;SDS011;66253;50.526;14.974;2023-04-15T11:14:41;1.70;;;0.30;;
77234;SDS011;66253;50.526;14.974;2023-04-15T11:17:07;1.80;;;0.60;;
77234;SDS011;66253;50.526;14.974;2023-04-15T11:19:52;1.40;;;0.20;;
77234;SDS011;66253;50.526;14.974;2023-04-15T11:22:18;2.10;;;0.80;;
77234;SDS011;66253;50.526;14.974;2023-04-15T11:24:47;1.50;;;0.40;;
77234;SDS011;66253;50.526;14.974;2023-04-15T11:27:23;1.50;;;0.60;;
77234;SDS011;66253;50.526;14.974;2023-04-15T11:29:49;1.40;;;0.30;;
77234;SDS011;66253;50.526;14.974;2023-04-15T11:32:22;2.50;;;1.30;;
77234;SDS011;66253;50.526;14.974;2023-04-15T11:34:59;2.80;;;0.50;;
77234;SDS011;66253;50.526;14.974;2023-04-15T11:40:26;4.60;;;2.70;;
77234;SDS011;66253;50.526;14.974;2023-04-15T11:46:03;1.70;;;0.40;;
77234;SDS011;66253;50.526;14.974;2023-04-15T11:48:48;2.10;;;0.50;;
77234;SDS011;66253;50.526;14.974;2023-04-15T11:51:17;2.00;;;0.90;;
77234;SDS011;66253;50.526;14.974;2023-04-15T11:53:48;2.20;;;0.60;;
77234;SDS011;66253;50.526;14.974;2023-04-15T11:59:04;3.20;;;1.60;;
77234;SDS011;66253;50.526;14.974;2023-04-15T12:01:39;2.90;;;0.70;;
77234;SDS011;66253;50.526;14.974;2023-04-15T12:04:13;1.70;;;0.70;;
77234;SDS011;66253;50.526;14.974;2023-04-15T12:06:41;2.20;;;0.80;;
77234;SDS011;66253;50.526;14.974;2023-04-15T12:11:47;7.30;;;2.70;;
77234;SDS011;66253;50.526;14.974;2023-04-15T12:14:27;3.40;;;1.00;;
77234;SDS011;66253;50.526;14.974;2023-04-15T12:17:04;2.20;;;0.60;;
77234;SDS011;66253;50.526;14.974;2023-04-15T12:22:21;2.60;;;0.60;;
77234;SDS011;66253;50.526;14.974;2023-04-15T12:24:47;1.80;;;0.30;;
77234;SDS011;66253;50.526;14.974;2023-04-15T12:27:24;0.80;;;0.10;;
77234;SDS011;66253;50.526;14.974;2023-04-15T12:29:56;1.60;;;0.30;;
77234;SDS011;66253;50.526;14.974;2023-04-15T12:32:29;2.00;;;0.70;;
77234;SDS011;66253;50.526;14.974;2023-04-15T12:35:00;2.70;;;0.70;;
77234;SDS011;66253;50.526;14.974;2023-04-15T12:37:26;3.00;;;0.80;;
77234;SDS011;66253;50.526;14.974;2023-04-15T12:39:52;1.60;;;0.50;;
77234;SDS011;66253;50.526;14.974;2023-04-15T12:42:18;5.70;;;2.20;;
77234;SDS011;66253;50.526;14.974;2023-04-15T12:44:44;5.70;;;1.90;;
77234;SDS011;66253;50.526;14.974;2023-04-15T12:47:11;2.50;;;0.60;;
77234;SDS011;66253;50.526;14.974;2023-04-15T12:49:37;6.10;;;2.10;;
77234;SDS011;66253;50.526;14.974;2023-04-15T12:52:03;4.00;;;1.40;;
77234;SDS011;66253;50.526;14.974;2023-04-15T12:54:30;1.40;;;0.30;;
77234;SDS011;66253;50.526;14.974;2023-04-15T12:56:56;1.60;;;0.40;;
77234;SDS011;66253;50.526;14.974;2023-04-15T12:59:25;1.70;;;0.50;;
77234;SDS011;66253;50.526;14.974;2023-04-15T13:01:54;2.00;;;0.40;;
77234;SDS011;66253;50.526;14.974;2023-04-15T13:04:23;2.10;;;0.70;;
77234;SDS011;66253;50.526;14.974;2023-04-15T13:06:48;2.10;;;0.60;;
77234;SDS011;66253;50.526;14.974;2023-04-15T13:09:18;2.40;;;0.40;;
77234;SDS011;66253;50.526;14.974;2023-04-15T13:11:46;2.20;;;0.40;;
77234;SDS011;66253;50.526;14.974;2023-04-15T13:14:18;1.80;;;0.60;;
77234;SDS011;66253;50.526;14.974;2023-04-15T13:16:44;1.90;;;0.40;;
77234;SDS011;66253;50.526;14.974;2023-04-15T13:19:18;2.40;;;0.50;;
77234;SDS011;66253;50.526;14.974;2023-04-15T13:21:44;2.70;;;1.40;;
77234;SDS011;66253;50.526;14.974;2023-04-15T13:24:12;4.30;;;1.10;;
77234;SDS011;66253;50.526;14.974;2023-04-15T13:26:38;2.00;;;0.60;;
77234;SDS011;66253;50.526;14.974;2023-04-15T13:29:04;2.70;;;1.00;;
77234;SDS011;66253;50.526;14.974;2023-04-15T13:31:33;2.40;;;1.00;;
77234;SDS011;66253;50.526;14.974;2023-04-15T13:33:59;2.70;;;1.10;;
77234;SDS011;66253;50.526;14.974;2023-04-15T13:36:28;1.60;;;0.60;;
77234;SDS011;66253;50.526;14.974;2023-04-15T13:38:56;2.50;;;0.70;;
77234;SDS011;66253;50.526;14.974;2023-04-15T13:41:24;3.30;;;1.20;;
77234;SDS011;66253;50.526;14.974;2023-04-15T13:43:52;1.70;;;0.50;;
77234;SDS011;66253;50.526;14.974;2023-04-15T13:46:23;2.20;;;0.40;;
77234;SDS011;66253;50.526;14.974;2023-04-15T13:48:56;1.70;;;0.50;;
77234;SDS011;66253;50.526;14.974;2023-04-15T13:51:27;1.90;;;0.50;;
77234;SDS011;66253;50.526;14.974;2023-04-15T13:53:53;2.00;;;0.40;;
77234;SDS011;66253;50.526;14.974;2023-04-15T13:56:19;1.60;;;0.40;;
77234;SDS011;66253;50.526;14.974;2023-04-15T13:58:45;2.30;;;0.90;;
77234;SDS011;66253;50.526;14.974;2023-04-15T14:01:14;2.10;;;0.80;;
77234;SDS011;66253;50.526;14.974;2023-04-15T14:03:42;2.10;;;0.50;;
77234;SDS011;66253;50.526;14.974;2023-04-15T14:06:11;1.90;;;0.40;;
77234;SDS011;66253;50.526;14.974;2023-04-15T14:08:47;1.10;;;0.30;;
77234;SDS011;66253;50.526;14.974;2023-04-15T14:11:13;1.40;;;0.30;;
77234;SDS011;66253;50.526;14.974;2023-04-15T14:13:38;1.60;;;0.70;;
77234;SDS011;66253;50.526;14.974;2023-04-15T14:16:06;2.50;;;0.70;;
77234;SDS011;66253;50.526;14.974;2023-04-15T14:18:32;2.80;;;1.10;;
77234;SDS011;66253;50.526;14.974;2023-04-15T14:21:00;1.50;;;0.40;;
77234;SDS011;66253;50.526;14.974;2023-04-15T14:23:30;1.30;;;0.50;;
77234;SDS011;66253;50.526;14.974;2023-04-15T14:25:58;1.30;;;0.40;;
77234;SDS011;66253;50.526;14.974;2023-04-15T14:28:24;1.70;;;0.60;;
77234;SDS011;66253;50.526;14.974;2023-04-15T14:30:54;2.30;;;0.90;;
77234;SDS011;66253;50.526;14.974;2023-04-15T14:33:25;2.00;;;0.50;;
77234;SDS011;66253;50.526;14.974;2023-04-15T14:35:51;2.40;;;0.70;;
77234;SDS011;66253;50.526;14.974;2023-04-15T14:38:17;3.00;;;1.10;;
77234;SDS011;66253;50.526;14.974;2023-04-15T14:40:43;1.70;;;0.60;;
77234;SDS011;66253;50.526;14.974;2023-04-15T14:43:11;2.20;;;0.60;;
77234;SDS011;66253;50.526;14.974;2023-04-15T14:45:37;3.30;;;0.90;;
77234;SDS011;66253;50.526;14.974;2023-04-15T14:48:04;3.10;;;1.10;;
77234;SDS011;66253;50.526;14.974;2023-04-15T14:50:36;2.40;;;0.60;;
77234;SDS011;66253;50.526;14.974;2023-04-15T14:53:03;1.80;;;0.40;;
77234;SDS011;66253;50.526;14.974;2023-04-15T14:55:28;2.20;;;0.40;;
77234;SDS011;66253;50.526;14.974;2023-04-15T14:57:55;2.10;;;0.40;;
77234;SDS011;66253;50.526;14.974;2023-04-15T15:00:20;2.20;;;0.50;;
77234;SDS011;66253;50.526;14.974;2023-04-15T15:02:51;2.70;;;1.80;;
77234;SDS011;66253;50.526;14.974;2023-04-15T15:05:17;1.40;;;0.50;;
77234;SDS011;66253;50.526;14.974;2023-04-15T15:07:43;3.30;;;1.40;;
77234;SDS011;66253;50.526;14.974;2023-04-15T15:10:13;2.30;;;1.00;;
77234;SDS011;66253;50.526;14.974;2023-04-15T15:12:38;2.20;;;1.00;;
77234;SDS011;66253;50.526;14.974;2023-04-15T15:15:07;2.00;;;0.70;;
77234;SDS011;66253;50.526;14.974;2023-04-15T15:17:34;1.70;;;0.40;;
77234;SDS011;66253;50.526;14.974;2023-04-15T15:20:05;2.40;;;0.70;;
77234;SDS011;66253;50.526;14.974;2023-04-15T15:22:30;2.20;;;0.70;;
77234;SDS011;66253;50.526;14.974;2023-04-15T15:24:56;4.50;;;1.40;;
77234;SDS011;66253;50.526;14.974;2023-04-15T15:27:23;2.50;;;0.50;;
77234;SDS011;66253;50.526;14.974;2023-04-15T15:29:49;2.30;;;0.90;;
77234;SDS011;66253;50.526;14.974;2023-04-15T15:32:15;2.40;;;0.60;;
77234;SDS011;66253;50.526;14.974;2023-04-15T15:34:49;2.00;;;0.60;;
77234;SDS011;66253;50.526;14.974;2023-04-15T15:37:16;2.00;;;0.50;;
77234;SDS011;66253;50.526;14.974;2023-04-15T15:39:42;1.60;;;0.40;;
77234;SDS011;66253;50.526;14.974;2023-04-15T15:42:08;2.00;;;0.60;;
77234;SDS011;66253;50.526;14.974;2023-04-15T15:44:37;2.70;;;1.20;;
77234;SDS011;66253;50.526;14.974;2023-04-15T15:47:03;3.00;;;0.60;;
77234;SDS011;66253;50.526;14.974;2023-04-15T15:49:32;2.20;;;0.60;;
77234;SDS011;66253;50.526;14.974;2023-04-15T15:52:00;2.70;;;1.10;;
77234;SDS011;66253;50.526;14.974;2023-04-15T15:54:26;2.20;;;0.50;;
77234;SDS011;66253;50.526;14.974;2023-04-15T15:56:59;1.60;;;0.60;;
77234;SDS011;66253;50.526;14.974;2023-04-15T15:59:36;1.70;;;0.50;;
77234;SDS011;66253;50.526;14.974;2023-04-15T16:02:11;2.10;;;0.40;;
77234;SDS011;66253;50.526;14.974;2023-04-15T16:04:38;2.30;;;0.90;;
77234;SDS011;66253;50.526;14.974;2023-04-15T16:07:04;2.30;;;0.40;;
77234;SDS011;66253;50.526;14.974;2023-04-15T16:09:33;2.00;;;0.50;;
77234;SDS011;66253;50.526;14.974;2023-04-15T16:11:59;2.90;;;1.30;;
77234;SDS011;66253;50.526;14.974;2023-04-15T16:14:28;2.70;;;0.70;;
77234;SDS011;66253;50.526;14.974;2023-04-15T16:16:53;3.40;;;1.10;;
77234;SDS011;66253;50.526;14.974;2023-04-15T16:19:19;2.80;;;1.10;;
77234;SDS011;66253;50.526;14.974;2023-04-15T16:21:45;4.80;;;3.10;;
77234;SDS011;66253;50.526;14.974;2023-04-15T16:24:14;4.90;;;2.30;;
77234;SDS011;66253;50.526;14.974;2023-04-15T16:26:40;3.40;;;1.80;;
77234;SDS011;66253;50.526;14.974;2023-04-15T16:29:06;4.00;;;1.90;;
77234;SDS011;66253;50.526;14.974;2023-04-15T16:31:34;3.10;;;1.30;;
77234;SDS011;66253;50.526;14.974;2023-04-15T16:34:11;4.50;;;1.80;;
77234;SDS011;66253;50.526;14.974;2023-04-15T16:36:42;4.20;;;2.40;;
77234;SDS011;66253;50.526;14.974;2023-04-15T16:39:10;3.60;;;2.10;;
77234;SDS011;66253;50.526;14.974;2023-04-15T16:42:00;3.10;;;1.40;;
77234;SDS011;66253;50.526;14.974;2023-04-15T16:44:27;3.50;;;1.20;;
77234;SDS011;66253;50.526;14.974;2023-04-15T16:49:26;7.90;;;3.20;;
77234;SDS011;66253;50.526;14.974;2023-04-15T16:51:52;8.80;;;3.50;;
77234;SDS011;66253;50.526;14.974;2023-04-15T16:54:26;49.50;;;20.90;;
77234;SDS011;66253;50.526;14.974;2023-04-15T16:56:54;40.40;;;18.10;;
77234;SDS011;66253;50.526;14.974;2023-04-15T16:59:25;35.40;;;15.30;;
77234;SDS011;66253;50.526;14.974;2023-04-15T17:01:52;17.70;;;6.90;;
77234;SDS011;66253;50.526;14.974;2023-04-15T17:04:20;10.00;;;5.20;;
77234;SDS011;66253;50.526;14.974;2023-04-15T17:06:51;17.60;;;7.60;;
77234;SDS011;66253;50.526;14.974;2023-04-15T17:09:26;21.50;;;9.80;;
77234;SDS011;66253;50.526;14.974;2023-04-15T17:12:02;24.90;;;10.60;;
77234;SDS011;66253;50.526;14.974;2023-04-15T17:14:34;41.10;;;17.40;;
77234;SDS011;66253;50.526;14.974;2023-04-15T17:17:19;28.80;;;13.20;;
77234;SDS011;66253;50.526;14.974;2023-04-15T17:19:51;17.40;;;8.50;;
77234;SDS011;66253;50.526;14.974;2023-04-15T17:22:29;91.80;;;31.00;;
77234;SDS011;66253;50.526;14.974;2023-04-15T17:24:58;67.60;;;24.50;;
77234;SDS011;66253;50.526;14.974;2023-04-15T17:27:28;31.60;;;12.40;;
77234;SDS011;66253;50.526;14.974;2023-04-15T17:30:00;22.00;;;9.80;;
77234;SDS011;66253;50.526;14.974;2023-04-15T17:32:29;16.20;;;7.30;;
77234;SDS011;66253;50.526;14.974;2023-04-15T17:35:04;12.00;;;5.10;;
77234;SDS011;66253;50.526;14.974;2023-04-15T17:37:33;8.10;;;3.50;;
77234;SDS011;66253;50.526;14.974;2023-04-15T17:39:59;6.70;;;3.20;;
77234;SDS011;66253;50.526;14.974;2023-04-15T17:42:28;8.20;;;5.00;;
77234;SDS011;66253;50.526;14.974;2023-04-15T17:45:14;9.20;;;3.50;;
77234;SDS011;66253;50.526;14.974;2023-04-15T17:47:43;9.00;;;4.10;;
77234;SDS011;66253;50.526;14.974;2023-04-15T17:50:14;12.20;;;5.90;;
77234;SDS011;66253;50.526;14.974;2023-04-15T17:52:43;10.20;;;4.80;;
77234;SDS011;66253;50.526;14.974;2023-04-15T17:55:26;8.20;;;3.70;;
77234;SDS011;66253;50.526;14.974;2023-04-15T17:58:05;8.20;;;3.70;;
77234;SDS011;66253;50.526;14.974;2023-04-15T18:00:36;7.60;;;3.40;;
77234;SDS011;66253;50.526;14.974;2023-04-15T18:03:25;6.90;;;3.20;;
77234;SDS011;66253;50.526;14.974;2023-04-15T18:05:54;7.30;;;3.20;;
77234;SDS011;66253;50.526;14.974;2023-04-15T18:08:22;7.90;;;3.30;;
77234;SDS011;66253;50.526;14.974;2023-04-15T18:10:53;7.30;;;3.50;;
77234;SDS011;66253;50.526;14.974;2023-04-15T18:13:21;7.60;;;3.70;;
77234;SDS011;66253;50.526;14.974;2023-04-15T18:15:56;7.10;;;4.20;;
77234;SDS011;66253;50.526;14.974;2023-04-15T18:18:22;13.00;;;5.00;;
77234;SDS011;66253;50.526;14.974;2023-04-15T18:20:48;12.80;;;4.60;;
77234;SDS011;66253;50.526;14.974;2023-04-15T18:23:17;12.40;;;4.60;;
77234;SDS011;66253;50.526;14.974;2023-04-15T18:25:46;13.90;;;5.50;;
77234;SDS011;66253;50.526;14.974;2023-04-15T18:28:35;23.30;;;8.00;;
77234;SDS011;66253;50.526;14.974;2023-04-15T18:31:02;28.00;;;10.00;;
77234;SDS011;66253;50.526;14.974;2023-04-15T18:33:31;29.30;;;10.20;;
77234;SDS011;66253;50.526;14.974;2023-04-15T18:36:02;28.90;;;9.80;;
77234;SDS011;66253;50.526;14.974;2023-04-15T18:38:31;36.40;;;11.80;;
77234;SDS011;66253;50.526;14.974;2023-04-15T18:41:08;28.30;;;9.80;;
77234;SDS011;66253;50.526;14.974;2023-04-15T18:43:36;29.00;;;8.90;;
77234;SDS011;66253;50.526;14.974;2023-04-15T18:46:05;20.20;;;6.50;;
77234;SDS011;66253;50.526;14.974;2023-04-15T18:48:36;19.30;;;7.50;;
77234;SDS011;66253;50.526;14.974;2023-04-15T18:51:02;21.00;;;8.60;;
77234;SDS011;66253;50.526;14.974;2023-04-15T18:53:31;22.00;;;9.40;;
77234;SDS011;66253;50.526;14.974;2023-04-15T18:55:59;31.50;;;11.40;;
77234;SDS011;66253;50.526;14.974;2023-04-15T18:58:36;39.60;;;15.70;;
77234;SDS011;66253;50.526;14.974;2023-04-15T19:01:10;128.20;;;48.60;;
77234;SDS011;66253;50.526;14.974;2023-04-15T19:03:44;125.30;;;44.90;;
77234;SDS011;66253;50.526;14.974;2023-04-15T19:06:23;177.90;;;68.20;;
77234;SDS011;66253;50.526;14.974;2023-04-15T19:09:02;238.10;;;93.50;;
77234;SDS011;66253;50.526;14.974;2023-04-15T19:11:36;299.00;;;114.00;;
77234;SDS011;66253;50.526;14.974;2023-04-15T19:14:15;308.10;;;117.90;;
77234;SDS011;66253;50.526;14.974;2023-04-15T19:16:57;275.10;;;108.80;;
77234;SDS011;66253;50.526;14.974;2023-04-15T19:19:26;181.40;;;72.30;;
77234;SDS011;66253;50.526;14.974;2023-04-15T19:22:06;126.60;;;49.30;;
77234;SDS011;66253;50.526;14.974;2023-04-15T19:24:43;170.20;;;60.90;;
77234;SDS011;66253;50.526;14.974;2023-04-15T19:27:18;141.50;;;58.10;;
77234;SDS011;66253;50.526;14.974;2023-04-15T19:29:56;141.40;;;55.80;;
77234;SDS011;66253;50.526;14.974;2023-04-15T19:32:22;147.20;;;58.70;;
77234;SDS011;66253;50.526;14.974;2023-04-15T19:35:07;297.10;;;110.70;;
77234;SDS011;66253;50.526;14.974;2023-04-15T19:37:36;307.70;;;111.10;;
77234;SDS011;66253;50.526;14.974;2023-04-15T19:40:06;316.40;;;119.20;;
77234;SDS011;66253;50.526;14.974;2023-04-15T19:43:06;285.40;;;106.90;;
77234;SDS011;66253;50.526;14.974;2023-04-15T19:45:46;155.60;;;58.80;;
77234;SDS011;66253;50.526;14.974;2023-04-15T19:48:27;139.50;;;54.40;;
77234;SDS011;66253;50.526;14.974;2023-04-15T19:54:11;147.40;;;58.60;;
77234;SDS011;66253;50.526;14.974;2023-04-15T19:56:39;124.00;;;48.40;;
77234;SDS011;66253;50.526;14.974;2023-04-15T19:59:08;85.20;;;34.20;;
77234;SDS011;66253;50.526;14.974;2023-04-15T20:01:39;138.30;;;55.90;;
77234;SDS011;66253;50.526;14.974;2023-04-15T20:04:17;95.40;;;43.10;;